This is the latest recevied weather packets stored in our database for station/object AG1T-1. If no packets are shown the sender has not sent any weather packets the latest 10 day(s).
| Time | Temp. | Humidity | Pressure | Rain* | Wind** | Luminosity | Snow |
|---|---|---|---|---|---|---|---|
| 1777820403 | 10° C | 57% | 1020.6 hPa | 0 mm | - | 445 W/m² | - |
| 1777819803 | 9.44° C | 56% | 1020.7 hPa | 0 mm | - | 385 W/m² | - |
| 1777819203 | 8.89° C | 57% | 1020.6 hPa | 0 mm | - | 366 W/m² | - |
| 1777818603 | 8.33° C | 61% | 1020.6 hPa | 0 mm | - | 336 W/m² | - |
| 1777818003 | 7.22° C | 64% | 1020.6 hPa | 0 mm | - | 302 W/m² | - |
| 1777817403 | 6.67° C | 61% | 1020.6 hPa | 0 mm | - | 246 W/m² | - |
| 1777816803 | 6.67° C | 62% | 1020.6 hPa | 0 mm | - | 206 W/m² | - |
| 1777816203 | 6.11° C | 65% | 1020.6 hPa | 0 mm | - | 207 W/m² | - |
| 1777815603 | 5.56° C | 67% | 1020.6 hPa | 0 mm | - | 169 W/m² | - |
| 1777814403 | 3.89° C | 75% | 1020.4 hPa | 0 mm | - | 111 W/m² | - |
| 1777813803 | 3.33° C | 76% | 1020.3 hPa | 0 mm | - | 79 W/m² | - |
| 1777813203 | 2.78° C | 76% | 1020.3 hPa | 0 mm | - | 26 W/m² | - |
| 1777812603 | 2.78° C | 75% | 1020.2 hPa | 0 mm | - | 21 W/m² | - |
| 1777812003 | 3.33° C | 74% | 1020.1 hPa | 0 mm | - | 14 W/m² | - |
| 1777811403 | 2.78° C | 75% | 1020.1 hPa | 0 mm | - | 9 W/m² | - |
| 1777810803 | 3.33° C | 75% | 1019.9 hPa | 0 mm | - | 0 W/m² | - |
| 1777810203 | 3.33° C | 75% | 1020 hPa | 0 mm | - | 0 W/m² | - |
| 1777809603 | 3.33° C | 75% | 1019.9 hPa | 0 mm | - | 0 W/m² | - |
| 1777809003 | 3.33° C | 74% | 1020 hPa | 0 mm | - | 0 W/m² | - |
| 1777808403 | 3.89° C | 73% | 1020.2 hPa | 0 mm | - | 0 W/m² | - |
| 1777807803 | 3.89° C | 72% | 1020.2 hPa | 0 mm | - | 0 W/m² | - |
| 1777807203 | 4.44° C | 71% | 1020.3 hPa | 0 mm | - | 0 W/m² | - |
| 1777806603 | 4.44° C | 72% | 1020.4 hPa | 0 mm | - | 0 W/m² | - |
| 1777806003 | 5° C | 69% | 1020.5 hPa | 0 mm | - | 0 W/m² | - |
| 1777805403 | 5° C | 69% | 1020.6 hPa | 0 mm | - | 0 W/m² | - |
* Rain latest hour (hover to see other rain measurements)
** Current wind speed in m/s (hover to see current wind gust speed)